x

Corpus Christi, Tx - 60nm Sse Of Corpus Christi, Tx (42020) Wave Buoy

4:50am - Sun 26th Jun 2016 All times are CDT. -5 hours from GMT.

  • Sig Wave height 3.6ft
  • Swell Direction
  • Peak Period 6s
  • Average Period 5s
  • Wind
    16mph, 18mph gusts
  • Sea Temp 83°f
  • Air Temp 84°f
  • Sea Pressure 1015.9mb
  • Corpus Christi, Tx - 60nm Sse Of Corpus Christi, Tx
  • Corpus Christi, Tx - 60nm Sse Of Corpus Christi, Tx

More Historic Weather Station data

Upgrade to MSW Pro to gain access to the past 30 days of data for over 8000 Wavebouys and Weather Stations around the globe.

Join Pro

Comparision Forecast

View Surf forecast
   
Sun 06/26 4:50am 3.5ft 6s 5s 16 18 mph 1015.9mb 83f 84f
2:50am 4ft 7s 4s 11 13 mph 1016.2mb 83f 84f
1:50am 4.5ft 7s 5s 16 18 mph 1016.3mb 83f 84f
12:50am 4ft 6s 4s 18 22 mph 1016.2mb 83f 84f
Sat 06/25 11:50pm 4.5ft 7s 5s 16 18 mph 1016mb 83f 84f
10:50pm 4ft 6s 5s 16 18 mph 1015.9mb 83f 84f
9:50pm 4ft 7s 5s 16 18 mph 1015.2mb 83f 84f
8:50pm 4ft 7s 5s 16 18 mph 1014.9mb 84f 84f
7:50pm 4.5ft 7s 5s 18 20 mph 1014.6mb 84f 84f
4:50pm 4.5ft 8s 5s 16 18 mph 1015.4mb 84f 85f
3:50pm 4.5ft 8s 5s 16 20 mph 1015.6mb 84f 84f
2:50pm 4.5ft 8s 5s 16 20 mph 1015.9mb 83f 85f
1:50pm 5ft 8s 5s 16 18 mph 1016.3mb 83f 85f
12:50pm 4.5ft 6s 5s 18 20 mph 1016.5mb 84f 85f
11:50am 4.5ft 7s 5s 18 22 mph 1016.5mb 84f 85f
10:50am 5ft 6s 5s 18 22 mph 1016.4mb 84f 85f
9:50am 4.5ft 7s 5s 18 22 mph 1016.2mb 84f 85f
8:50am 5ft 6s 5s 20 22 mph 1016mb 84f 85f
7:50am 4.5ft 6s 5s 18 22 mph 1015.4mb 84f 85f
6:50am 5ft 6s 5s 20 25 mph 1015mb 84f 85f
5:50am 4.5ft 6s 4s 22 25 mph 1014.3mb 84f 85f
4:50am 5ft 6s 4s 20 25 mph 1014.3mb 84f 84f
3:50am 5ft 6s 5s 22 25 mph 1014mb 84f 85f
2:50am 5ft 6s 4s 22 27 mph 1014.1mb 84f 85f
1:50am 5ft 6s 4s 22 27 mph 1014.4mb 84f 85f
12:50am 5ft 6s 5s 20 25 mph 1014.9mb 84f 85f
Fri 06/24 11:50pm 4.5ft 6s 4s 22 25 mph 1015.2mb 84f 85f
10:50pm 4ft 6s 4s 20 25 mph 1014.8mb 84f 85f
9:50pm 4ft 5s 4s 20 22 mph 1014.5mb 84f 85f
8:50pm 3.5ft 5s 4s 20 22 mph 1014mb 84f 85f
7:50pm 3.5ft 5s 4s 20 25 mph 1013.8mb 84f 85f
6:50pm 3ft 6s 4s 13 16 mph 1014mb 84f 85f
5:50pm 2.5ft 6s 4s 16 18 mph 1014.1mb 84f 85f
4:50pm 3ft 6s 4s 16 18 mph 1014.8mb 84f 85f
3:50pm 2.5ft 5s 5s 13 18 mph 1015.1mb 84f 85f
2:50pm 2.5ft 5s 4s 11 13 mph 1015.7mb 85f 84f
1:50pm 3.5ft 6s 5s 11
mph
1016.3mb 84f 85f
12:50pm 3ft 5s 4s 11 13 mph 1016.8mb 84f 84f
11:50am 3.5ft 5s 4s 11 13 mph 1016.9mb 84f 84f
10:50am 3.5ft 5s 4s 16 18 mph 1016.9mb 84f 84f
9:50am 3.5ft 6s 5s 16 18 mph 1016.9mb 84f 85f
8:50am 3.5ft 5s 5s 13 16 mph 1016.3mb 84f 84f
7:50am 3.5ft 5s 5s 13 18 mph 1015.9mb 84f 84f
6:50am 3.5ft 6s 5s 13 16 mph 1015.5mb 84f 84f
5:50am 4ft 5s 4s 16 18 mph 1015.1mb 84f 84f
4:50am 4ft 6s 4s 13 16 mph 1014.9mb 84f 84f
3:50am 4.5ft 5s 5s 16 18 mph 1014.7mb 84f 84f
2:50am 4.5ft 5s 5s 18 22 mph 1014.6mb 84f 84f
1:50am 4ft 5s 5s 16 20 mph 1015.2mb 84f 83f
12:50am 4.5ft 5s 4s 18 20 mph 1015.6mb 84f 84f
Thu 06/23 11:50pm 4ft 5s 5s 18 22 mph 1015.9mb 84f 84f
10:50pm 4ft 7s 4s 18 22 mph 1015.6mb 85f 84f
9:50pm 4ft 7s 5s 20 22 mph 1015.1mb 85f 84f
8:50pm 3.5ft 7s 4s 18 20 mph 1014.9mb 85f 84f
7:50pm 3.5ft 7s 4s 18 20 mph 1014.8mb 85f 84f
6:50pm 3.5ft 5s 4s 18 20 mph 1014.6mb 85f 84f
5:50pm 3.5ft 5s 4s 18 20 mph 1015mb 85f 84f
4:50pm 3ft 5s 4s 16 20 mph 1015.5mb 85f 85f
3:50pm 3ft 5s 4s 18 20 mph 1015.8mb 85f 85f
2:50pm 3ft 5s 4s 16 18 mph 1016.3mb 85f 85f
1:50pm 3ft 5s 5s 13 18 mph 1016.7mb 85f 84f
12:50pm 3.5ft 5s 5s 13 16 mph 1017mb 85f 84f
11:50am 3.5ft 5s 5s 11 13 mph 1017.1mb 85f 84f
10:50am 3.5ft 5s 5s 13 18 mph 1017mb 85f 83f
9:50am 4ft 6s 5s 11 13 mph 1017mb 84f 84f
8:50am 4ft 5s 5s 11 13 mph 1016.8mb 84f 83f
7:50am 4ft 5s 5s 11 16 mph 1016.2mb 84f 83f
6:50am 3.5ft 5s 4s 13 16 mph 1015.9mb 84f 83f
5:50am 3.5ft 5s 4s 18 20 mph 1015.5mb 84f 83f
4:50am 3.5ft 5s 4s 16 20 mph 1015.4mb 85f 83f
2:50am 3.5ft 5s 4s 18 20 mph 1015.8mb 85f 84f
1:50am 3ft 7s 4s 18 20 mph 1016.1mb 85f 84f
12:50am 3ft 6s 4s 16 20 mph 1016.2mb 85f 84f
Wed 06/22 11:50pm 2.5ft 7s 4s 13 18 mph 1016.4mb 85f 84f
10:50pm 3ft 6s 4s 13 18 mph 1016.3mb 85f 84f
9:50pm 3ft 7s 4s 13 18 mph 1015.7mb 85f 85f
8:50pm 3ft 8s 4s 16 18 mph 1015.3mb 85f 84f
7:50pm 3ft 7s 5s 16 18 mph 1015mb 85f 85f
6:50pm 3ft 8s 5s 16 18 mph 1014.9mb 85f 85f
5:50pm 3ft 8s 5s 16 18 mph 1014.9mb 86f 85f
4:50pm 3ft 8s 5s 13 18 mph 1015.3mb 85f 85f
3:50pm 2.5ft 6s 5s 13 16 mph 1015.7mb 85f 84f
2:50pm 3ft 8s 5s 11 13 mph 1016.4mb 85f 84f
1:50pm 3ft 8s 5s 11 13 mph 1016.7mb 85f 84f
12:50pm 3.5ft 7s 5s 9 11 mph 1016.9mb 85f 84f
11:50am 3.5ft 7s 5s 9 11 mph 1017.2mb 85f 84f